Arcadia, Illinois
Current Conditions -  °F | °C
As of 1:35 AM on Monday 22 Dec 2014 (Local Time) from KIJX Reporting Station
Overcast Overcast  
Wind Chill:   Ceiling: 4400
Heat Index:   Visibility: 10mi
Dew Point:   Wind: 12mph
Humidity: 78%   Direction: 130°SE
Pressure: 29.91"   Gusts: NA
Location:  39.7413°N, 90.2138°W
Report Text: KIJX 220735Z AUTO 13010KT 10SM OVC044 04/01 A2991 RMK AO2 T00440008
Loading
Personal Weather Stations






























Interactive Weather Map New forecast layout! Learn more

10-Day Weather Forecast

Advertisements
Track Severe Weather on mobile